sensor_id;sensor_type;location;lat;lon;timestamp;pressure;altitude;pressure_sealevel;temperature;humidity
15604;BME280;7902;49.042;9.092;2023-08-24T00:01:17;99267.69;;;25.76;53.02
15604;BME280;7902;49.042;9.092;2023-08-24T00:03:44;99263.56;;;25.74;53.11
15604;BME280;7902;49.042;9.092;2023-08-24T00:06:12;99269.16;;;25.72;52.89
15604;BME280;7902;49.042;9.092;2023-08-24T00:08:38;99268.09;;;25.67;53.38
15604;BME280;7902;49.042;9.092;2023-08-24T00:11:04;99256.50;;;25.66;53.49
15604;BME280;7902;49.042;9.092;2023-08-24T00:13:31;99256.09;;;25.63;53.42
15604;BME280;7902;49.042;9.092;2023-08-24T00:15:57;99257.53;;;25.59;52.94
15604;BME280;7902;49.042;9.092;2023-08-24T00:18:24;99248.25;;;25.61;53.12
15604;BME280;7902;49.042;9.092;2023-08-24T00:20:50;99246.59;;;25.60;53.50
15604;BME280;7902;49.042;9.092;2023-08-24T00:23:17;99246.59;;;25.60;53.40
15604;BME280;7902;49.042;9.092;2023-08-24T00:25:43;99251.97;;;25.60;53.40
15604;BME280;7902;49.042;9.092;2023-08-24T00:28:09;99244.09;;;25.59;53.50
15604;BME280;7902;49.042;9.092;2023-08-24T00:30:36;99239.53;;;25.59;53.28
15604;BME280;7902;49.042;9.092;2023-08-24T00:33:02;99241.81;;;25.56;53.30
15604;BME280;7902;49.042;9.092;2023-08-24T00:35:28;99249.22;;;25.54;53.48
15604;BME280;7902;49.042;9.092;2023-08-24T00:37:55;99232.88;;;25.49;53.11
15604;BME280;7902;49.042;9.092;2023-08-24T00:40:21;99222.50;;;25.39;53.74
15604;BME280;7902;49.042;9.092;2023-08-24T00:42:47;99223.72;;;25.30;54.42
15604;BME280;7902;49.042;9.092;2023-08-24T00:45:13;99213.81;;;25.37;54.07
15604;BME280;7902;49.042;9.092;2023-08-24T00:47:41;99219.78;;;25.26;53.88
15604;BME280;7902;49.042;9.092;2023-08-24T00:50:08;99220.00;;;25.31;54.23
15604;BME280;7902;49.042;9.092;2023-08-24T00:52:40;99215.88;;;25.35;53.77
15604;BME280;7902;49.042;9.092;2023-08-24T00:55:07;99223.72;;;25.30;53.95
15604;BME280;7902;49.042;9.092;2023-08-24T00:57:35;99223.72;;;25.30;54.49
15604;BME280;7902;49.042;9.092;2023-08-24T01:00:03;99226.44;;;25.37;53.93
15604;BME280;7902;49.042;9.092;2023-08-24T01:02:32;99214.03;;;25.35;53.98
15604;BME280;7902;49.042;9.092;2023-08-24T01:05:01;99202.22;;;25.43;53.80
15604;BME280;7902;49.042;9.092;2023-08-24T01:07:27;99193.16;;;25.44;53.54
15604;BME280;7902;49.042;9.092;2023-08-24T01:09:53;99197.28;;;25.40;54.03
15604;BME280;7902;49.042;9.092;2023-08-24T01:12:48;99196.03;;;25.43;53.88
15604;BME280;7902;49.042;9.092;2023-08-24T01:15:20;99201.41;;;25.43;53.45
15604;BME280;7902;49.042;9.092;2023-08-24T01:17:50;99201.00;;;25.52;53.61
15604;BME280;7902;49.042;9.092;2023-08-24T01:20:17;99191.50;;;25.50;53.44
15604;BME280;7902;49.042;9.092;2023-08-24T01:22:54;99187.75;;;25.44;53.68
15604;BME280;7902;49.042;9.092;2023-08-24T01:25:34;99198.94;;;25.48;53.87
15604;BME280;7902;49.042;9.092;2023-08-24T01:28:03;99200.59;;;25.42;53.86
15604;BME280;7902;49.042;9.092;2023-08-24T01:30:33;99199.13;;;25.33;54.10
15604;BME280;7902;49.042;9.092;2023-08-24T01:33:03;99212.97;;;25.30;54.36
15604;BME280;7902;49.042;9.092;2023-08-24T01:35:31;99217.09;;;25.26;54.29
15604;BME280;7902;49.042;9.092;2023-08-24T01:37:58;99219.13;;;25.17;54.43
15604;BME280;7902;49.042;9.092;2023-08-24T01:40:52;99226.13;;;25.12;54.79
15604;BME280;7902;49.042;9.092;2023-08-24T01:43:21;99225.31;;;25.05;54.85
15604;BME280;7902;49.042;9.092;2023-08-24T01:45:51;99227.38;;;25.09;54.73
15604;BME280;7902;49.042;9.092;2023-08-24T01:48:19;99231.09;;;25.08;55.02
15604;BME280;7902;49.042;9.092;2023-08-24T01:50:45;99233.19;;;25.13;54.83
15604;BME280;7902;49.042;9.092;2023-08-24T01:53:12;99234.44;;;25.17;55.20
15604;BME280;7902;49.042;9.092;2023-08-24T01:55:38;99240.59;;;25.11;54.77
15604;BME280;7902;49.042;9.092;2023-08-24T01:58:04;99232.53;;;25.11;54.86
15604;BME280;7902;49.042;9.092;2023-08-24T02:00:30;99230.06;;;25.09;54.41
15604;BME280;7902;49.042;9.092;2023-08-24T02:02:56;99227.75;;;25.06;55.02
15604;BME280;7902;49.042;9.092;2023-08-24T02:05:22;99227.75;;;25.00;55.15
15604;BME280;7902;49.042;9.092;2023-08-24T02:07:50;99222.34;;;24.93;55.16
15604;BME280;7902;49.042;9.092;2023-08-24T02:10:16;99222.13;;;24.88;55.33
15604;BME280;7902;49.042;9.092;2023-08-24T02:12:42;99220.50;;;24.94;55.21
15604;BME280;7902;49.042;9.092;2023-08-24T02:15:08;99218.66;;;25.01;55.08
15604;BME280;7902;49.042;9.092;2023-08-24T02:17:34;99214.94;;;25.02;55.16
15604;BME280;7902;49.042;9.092;2023-08-24T02:20:00;99214.31;;;25.00;55.32
15604;BME280;7902;49.042;9.092;2023-08-24T02:22:25;99209.16;;;24.98;55.18
15604;BME280;7902;49.042;9.092;2023-08-24T02:24:51;99213.69;;;24.98;55.25
15604;BME280;7902;49.042;9.092;2023-08-24T02:27:17;99220.50;;;24.94;55.38
15604;BME280;7902;49.042;9.092;2023-08-24T02:29:43;99219.84;;;24.91;55.35
15604;BME280;7902;49.042;9.092;2023-08-24T02:32:09;99219.25;;;24.89;55.86
15604;BME280;7902;49.042;9.092;2023-08-24T02:34:35;99218.63;;;24.94;55.49
15604;BME280;7902;49.042;9.092;2023-08-24T02:37:01;99214.09;;;24.95;55.38
15604;BME280;7902;49.042;9.092;2023-08-24T02:39:27;99206.03;;;24.95;55.39
15604;BME280;7902;49.042;9.092;2023-08-24T02:41:53;99208.88;;;24.86;55.40
15604;BME280;7902;49.042;9.092;2023-08-24T02:44:19;99207.59;;;24.82;55.71
15604;BME280;7902;49.042;9.092;2023-08-24T02:46:45;99201.84;;;24.85;55.54
15604;BME280;7902;49.042;9.092;2023-08-24T02:49:11;99216.47;;;24.83;55.56
15604;BME280;7902;49.042;9.092;2023-08-24T02:51:37;99211.94;;;24.83;55.43
15604;BME280;7902;49.042;9.092;2023-08-24T02:54:03;99210.72;;;24.86;55.64
15604;BME280;7902;49.042;9.092;2023-08-24T02:56:29;99197.66;;;24.76;55.71
15604;BME280;7902;49.042;9.092;2023-08-24T02:58:55;99198.69;;;24.75;55.31
15604;BME280;7902;49.042;9.092;2023-08-24T03:01:21;99212.94;;;24.76;55.56
15604;BME280;7902;49.042;9.092;2023-08-24T03:03:47;99215.34;;;24.64;55.96
15604;BME280;7902;49.042;9.092;2023-08-24T03:06:13;99202.13;;;24.63;56.25
15604;BME280;7902;49.042;9.092;2023-08-24T03:08:39;99199.56;;;24.48;56.37
15604;BME280;7902;49.042;9.092;2023-08-24T03:11:05;99201.81;;;24.44;56.64
15604;BME280;7902;49.042;9.092;2023-08-24T03:13:33;99203.91;;;24.49;56.66
15604;BME280;7902;49.042;9.092;2023-08-24T03:16:03;99188.25;;;24.53;56.59
15604;BME280;7902;49.042;9.092;2023-08-24T03:18:29;99175.84;;;24.58;56.25
15604;BME280;7902;49.042;9.092;2023-08-24T03:20:55;99175.47;;;24.61;56.29
15604;BME280;7902;49.042;9.092;2023-08-24T03:23:21;99168.63;;;24.52;56.78
15604;BME280;7902;49.042;9.092;2023-08-24T03:25:47;99164.69;;;24.48;56.69
15604;BME280;7902;49.042;9.092;2023-08-24T03:28:13;99147.09;;;24.45;56.78
15604;BME280;7902;49.042;9.092;2023-08-24T03:30:45;99151.69;;;24.52;56.89
15604;BME280;7902;49.042;9.092;2023-08-24T03:33:12;99150.22;;;24.49;56.93
15604;BME280;7902;49.042;9.092;2023-08-24T03:35:38;99144.22;;;24.47;56.72
15604;BME280;7902;49.042;9.092;2023-08-24T03:38:03;99140.13;;;24.51;56.41
15604;BME280;7902;49.042;9.092;2023-08-24T03:40:29;99135.16;;;24.48;56.47
15604;BME280;7902;49.042;9.092;2023-08-24T03:42:56;99139.03;;;24.39;57.02
15604;BME280;7902;49.042;9.092;2023-08-24T03:45:22;99140.88;;;24.38;57.17
15604;BME280;7902;49.042;9.092;2023-08-24T03:47:48;99143.13;;;24.35;56.51
15604;BME280;7902;49.042;9.092;2023-08-24T03:50:48;99139.59;;;24.34;57.13
15604;BME280;7902;49.042;9.092;2023-08-24T03:53:18;99140.19;;;24.30;57.46
15604;BME280;7902;49.042;9.092;2023-08-24T03:55:47;99135.06;;;24.35;57.26
15604;BME280;7902;49.042;9.092;2023-08-24T03:58:14;99126.81;;;24.36;57.32
15604;BME280;7902;49.042;9.092;2023-08-24T04:00:40;99136.72;;;24.36;57.41
15604;BME280;7902;49.042;9.092;2023-08-24T04:03:07;99138.56;;;24.35;57.19
15604;BME280;7902;49.042;9.092;2023-08-24T04:05:33;99131.13;;;24.31;57.26
15604;BME280;7902;49.042;9.092;2023-08-24T04:08:00;99126.16;;;24.28;58.14
15604;BME280;7902;49.042;9.092;2023-08-24T04:10:30;99125.97;;;24.29;57.41
15604;BME280;7902;49.042;9.092;2023-08-24T04:12:56;99128.28;;;24.39;57.47
15604;BME280;7902;49.042;9.092;2023-08-24T04:15:22;99117.75;;;24.44;56.67
15604;BME280;7902;49.042;9.092;2023-08-24T04:17:49;99119.19;;;24.40;57.54
15604;BME280;7902;49.042;9.092;2023-08-24T04:20:15;99110.75;;;24.43;57.06
15604;BME280;7902;49.042;9.092;2023-08-24T04:22:42;99113.44;;;24.43;57.18
15604;BME280;7902;49.042;9.092;2023-08-24T04:25:08;99108.44;;;24.40;56.95
15604;BME280;7902;49.042;9.092;2023-08-24T04:27:34;99098.56;;;24.40;57.36
15604;BME280;7902;49.042;9.092;2023-08-24T04:30:00;99093.59;;;24.44;57.13
15604;BME280;7902;49.042;9.092;2023-08-24T04:32:27;99085.16;;;24.47;56.93
15604;BME280;7902;49.042;9.092;2023-08-24T04:34:53;99088.88;;;24.46;57.04
15604;BME280;7902;49.042;9.092;2023-08-24T04:37:19;99093.84;;;24.49;57.27
15604;BME280;7902;49.042;9.092;2023-08-24T04:39:46;99099.44;;;24.47;57.02
15604;BME280;7902;49.042;9.092;2023-08-24T04:42:11;99102.25;;;24.39;57.62
15604;BME280;7902;49.042;9.092;2023-08-24T04:44:37;99102.66;;;24.36;57.43
15604;BME280;7902;49.042;9.092;2023-08-24T04:47:03;99103.06;;;24.33;57.29
15604;BME280;7902;49.042;9.092;2023-08-24T04:49:30;99100.81;;;24.37;57.82
15604;BME280;7902;49.042;9.092;2023-08-24T04:51:56;99103.50;;;24.37;57.75
15604;BME280;7902;49.042;9.092;2023-08-24T04:54:22;99107.25;;;24.42;57.18
15604;BME280;7902;49.042;9.092;2023-08-24T04:56:48;99106.19;;;24.37;57.38
15604;BME280;7902;49.042;9.092;2023-08-24T04:59:14;99095.84;;;24.34;57.80
15604;BME280;7902;49.042;9.092;2023-08-24T05:01:40;99097.91;;;24.32;57.93
15604;BME280;7902;49.042;9.092;2023-08-24T05:04:06;99085.13;;;24.34;57.53
15604;BME280;7902;49.042;9.092;2023-08-24T05:06:32;99081.19;;;24.36;57.70
15604;BME280;7902;49.042;9.092;2023-08-24T05:08:57;99074.97;;;24.29;57.67
15604;BME280;7902;49.042;9.092;2023-08-24T05:11:26;99065.91;;;24.37;57.37
15604;BME280;7902;49.042;9.092;2023-08-24T05:13:52;99063.25;;;24.37;57.84
15604;BME280;7902;49.042;9.092;2023-08-24T05:16:18;99069.84;;;24.41;57.34
15604;BME280;7902;49.042;9.092;2023-08-24T05:18:44;99058.94;;;24.49;57.32
15604;BME280;7902;49.042;9.092;2023-08-24T05:21:10;99061.00;;;24.54;57.29
15604;BME280;7902;49.042;9.092;2023-08-24T05:23:36;99067.63;;;24.51;57.46
15604;BME280;7902;49.042;9.092;2023-08-24T05:26:02;99069.91;;;24.54;57.65
15604;BME280;7902;49.042;9.092;2023-08-24T05:28:30;99078.00;;;24.61;56.95
15604;BME280;7902;49.042;9.092;2023-08-24T05:30:57;99074.06;;;24.57;57.23
15604;BME280;7902;49.042;9.092;2023-08-24T05:33:24;99084.38;;;24.60;57.17
15604;BME280;7902;49.042;9.092;2023-08-24T05:35:51;99088.09;;;24.52;57.37
15604;BME280;7902;49.042;9.092;2023-08-24T05:38:17;99087.03;;;24.46;57.62
15604;BME280;7902;49.042;9.092;2023-08-24T05:40:47;99083.50;;;24.46;57.51
15604;BME280;7902;49.042;9.092;2023-08-24T05:43:13;99080.00;;;24.45;57.75
15604;BME280;7902;49.042;9.092;2023-08-24T05:45:39;99079.16;;;24.45;57.99
15604;BME280;7902;49.042;9.092;2023-08-24T05:48:06;99075.47;;;24.46;57.69
15604;BME280;7902;49.042;9.092;2023-08-24T05:50:32;99076.28;;;24.46;57.85
15604;BME280;7902;49.042;9.092;2023-08-24T05:52:58;99081.84;;;24.45;58.05
15604;BME280;7902;49.042;9.092;2023-08-24T05:55:24;99075.47;;;24.46;57.68
15604;BME280;7902;49.042;9.092;2023-08-24T05:57:50;99074.66;;;24.59;57.81
15604;BME280;7902;49.042;9.092;2023-08-24T06:00:16;99066.84;;;24.57;57.78
15604;BME280;7902;49.042;9.092;2023-08-24T06:02:42;99065.63;;;24.66;57.64
15604;BME280;7902;49.042;9.092;2023-08-24T06:05:08;99070.16;;;24.72;57.78
15604;BME280;7902;49.042;9.092;2023-08-24T06:07:35;99071.63;;;24.81;57.57
15604;BME280;7902;49.042;9.092;2023-08-24T06:10:01;99082.63;;;24.86;57.50
15604;BME280;7902;49.042;9.092;2023-08-24T06:12:26;99084.94;;;24.89;57.39
15604;BME280;7902;49.042;9.092;2023-08-24T06:14:52;99087.22;;;24.99;57.01
15604;BME280;7902;49.042;9.092;2023-08-24T06:17:18;99098.38;;;25.03;57.09
15604;BME280;7902;49.042;9.092;2023-08-24T06:19:44;99101.72;;;25.05;57.01
15604;BME280;7902;49.042;9.092;2023-08-24T06:22:10;99096.53;;;25.10;56.68
15604;BME280;7902;49.042;9.092;2023-08-24T06:24:36;99118.44;;;25.07;57.11
15604;BME280;7902;49.042;9.092;2023-08-24T06:27:02;99128.13;;;25.01;57.07
15604;BME280;7902;49.042;9.092;2023-08-24T06:29:28;99144.31;;;25.14;56.62
15604;BME280;7902;49.042;9.092;2023-08-24T06:31:55;99154.63;;;25.17;56.73
15604;BME280;7902;49.042;9.092;2023-08-24T06:34:21;99162.06;;;25.15;56.60
15604;BME280;7902;49.042;9.092;2023-08-24T06:36:47;99172.84;;;25.28;56.49
15604;BME280;7902;49.042;9.092;2023-08-24T06:39:13;99176.56;;;25.34;56.23
15604;BME280;7902;49.042;9.092;2023-08-24T06:41:48;99166.66;;;25.34;56.32
15604;BME280;7902;49.042;9.092;2023-08-24T06:44:18;99169.34;;;25.28;56.28
15604;BME280;7902;49.042;9.092;2023-08-24T06:46:44;99175.97;;;25.39;56.17
15604;BME280;7902;49.042;9.092;2023-08-24T06:49:11;99192.69;;;25.34;56.53
15604;BME280;7902;49.042;9.092;2023-08-24T06:51:37;99189.78;;;25.29;57.06
15604;BME280;7902;49.042;9.092;2023-08-24T06:54:02;99182.19;;;25.46;56.42
15604;BME280;7902;49.042;9.092;2023-08-24T06:56:28;99178.25;;;25.48;56.65
15604;BME280;7902;49.042;9.092;2023-08-24T06:58:54;99164.59;;;25.43;56.71
15604;BME280;7902;49.042;9.092;2023-08-24T07:01:20;99172.88;;;25.48;56.44
15604;BME280;7902;49.042;9.092;2023-08-24T07:03:46;99167.16;;;25.64;56.54
15604;BME280;7902;49.042;9.092;2023-08-24T07:06:12;99155.34;;;25.72;55.99
15604;BME280;7902;49.042;9.092;2023-08-24T07:08:38;99122.88;;;25.67;56.23
15604;BME280;7902;49.042;9.092;2023-08-24T07:11:04;99103.63;;;25.83;54.91
15604;BME280;7902;49.042;9.092;2023-08-24T07:13:30;99100.06;;;25.96;54.51
15604;BME280;7902;49.042;9.092;2023-08-24T07:15:56;99098.03;;;25.85;54.47
15604;BME280;7902;49.042;9.092;2023-08-24T07:18:22;99098.22;;;25.96;54.08
15604;BME280;7902;49.042;9.092;2023-08-24T07:20:48;99098.00;;;25.91;53.47
15604;BME280;7902;49.042;9.092;2023-08-24T07:23:14;99097.38;;;25.96;53.40
15604;BME280;7902;49.042;9.092;2023-08-24T07:25:40;99104.44;;;26.03;53.25
15604;BME280;7902;49.042;9.092;2023-08-24T07:28:06;99097.63;;;25.94;52.67
15604;BME280;7902;49.042;9.092;2023-08-24T07:30:35;99106.91;;;25.52;52.39
15604;BME280;7902;49.042;9.092;2023-08-24T07:33:02;99112.34;;;25.65;52.73
15604;BME280;7902;49.042;9.092;2023-08-24T07:35:31;99106.72;;;25.73;51.96
15604;BME280;7902;49.042;9.092;2023-08-24T07:37:57;99108.38;;;25.81;52.01
15604;BME280;7902;49.042;9.092;2023-08-24T07:40:23;99109.84;;;25.64;51.90
15604;BME280;7902;49.042;9.092;2023-08-24T07:42:51;99097.44;;;25.56;51.94
15604;BME280;7902;49.042;9.092;2023-08-24T07:45:19;99103.63;;;25.76;51.69
15604;BME280;7902;49.042;9.092;2023-08-24T07:47:45;99104.25;;;25.59;51.87
15604;BME280;7902;49.042;9.092;2023-08-24T07:50:11;99100.72;;;25.71;51.89
15604;BME280;7902;49.042;9.092;2023-08-24T07:52:41;99097.63;;;25.94;51.67
15604;BME280;7902;49.042;9.092;2023-08-24T07:55:07;99099.25;;;26.02;51.13
15604;BME280;7902;49.042;9.092;2023-08-24T07:57:34;99098.00;;;25.98;51.48
15604;BME280;7902;49.042;9.092;2023-08-24T08:00:00;99107.13;;;26.03;51.27
15604;BME280;7902;49.042;9.092;2023-08-24T08:02:26;99112.47;;;26.16;51.06
15604;BME280;7902;49.042;9.092;2023-08-24T08:04:56;99111.22;;;26.12;51.12
15604;BME280;7902;49.042;9.092;2023-08-24T08:07:28;99111.63;;;26.29;51.27
15604;BME280;7902;49.042;9.092;2023-08-24T08:09:54;99111.63;;;26.29;51.34
15604;BME280;7902;49.042;9.092;2023-08-24T08:12:20;99113.72;;;26.27;51.29
15604;BME280;7902;49.042;9.092;2023-08-24T08:14:46;99112.84;;;26.33;51.06
15604;BME280;7902;49.042;9.092;2023-08-24T08:17:12;99115.19;;;25.97;51.77
15604;BME280;7902;49.042;9.092;2023-08-24T08:19:38;99114.50;;;26.34;51.10
15604;BME280;7902;49.042;9.092;2023-08-24T08:22:04;99110.41;;;26.12;51.63
15604;BME280;7902;49.042;9.092;2023-08-24T08:24:30;99123.16;;;26.49;51.13
15604;BME280;7902;49.042;9.092;2023-08-24T08:26:56;99117.59;;;26.38;51.36
15604;BME280;7902;49.042;9.092;2023-08-24T08:29:22;99124.38;;;26.53;51.11
15604;BME280;7902;49.042;9.092;2023-08-24T08:31:48;99122.97;;;26.44;51.36
15604;BME280;7902;49.042;9.092;2023-08-24T08:34:14;99118.63;;;26.43;51.40
15604;BME280;7902;49.042;9.092;2023-08-24T08:36:40;99121.69;;;26.53;51.60
15604;BME280;7902;49.042;9.092;2023-08-24T08:39:06;99118.94;;;26.67;50.71
15604;BME280;7902;49.042;9.092;2023-08-24T08:41:38;99116.88;;;26.69;50.83
15604;BME280;7902;49.042;9.092;2023-08-24T08:44:05;99124.38;;;26.53;51.43
15604;BME280;7902;49.042;9.092;2023-08-24T08:46:32;99116.97;;;26.93;49.99
15604;BME280;7902;49.042;9.092;2023-08-24T08:49:00;99111.81;;;26.85;50.23
15604;BME280;7902;49.042;9.092;2023-08-24T08:51:27;99110.88;;;27.11;49.75
15604;BME280;7902;49.042;9.092;2023-08-24T08:53:53;99109.13;;;27.23;49.43
15604;BME280;7902;49.042;9.092;2023-08-24T08:56:20;99110.97;;;26.91;50.13
15604;BME280;7902;49.042;9.092;2023-08-24T08:58:48;99109.78;;;27.19;49.59
15604;BME280;7902;49.042;9.092;2023-08-24T09:01:15;99103.81;;;27.10;49.93
15604;BME280;7902;49.042;9.092;2023-08-24T09:03:44;99103.81;;;27.10;50.42
15604;BME280;7902;49.042;9.092;2023-08-24T09:06:10;99095.13;;;27.08;50.13
15604;BME280;7902;49.042;9.092;2023-08-24T09:08:36;99091.00;;;27.05;50.31
15604;BME280;7902;49.042;9.092;2023-08-24T09:11:03;99077.97;;;27.27;50.46
15604;BME280;7902;49.042;9.092;2023-08-24T09:13:29;99057.84;;;27.30;49.91
15604;BME280;7902;49.042;9.092;2023-08-24T09:16:03;99055.59;;;27.27;50.13
15604;BME280;7902;49.042;9.092;2023-08-24T09:18:37;99058.84;;;27.35;49.99
15604;BME280;7902;49.042;9.092;2023-08-24T09:21:19;99054.97;;;27.56;49.67
15604;BME280;7902;49.042;9.092;2023-08-24T09:23:51;99035.31;;;27.49;49.71
15604;BME280;7902;49.042;9.092;2023-08-24T09:26:27;99037.94;;;27.56;49.20
15604;BME280;7902;49.042;9.092;2023-08-24T09:28:54;99016.84;;;27.71;49.33
15604;BME280;7902;49.042;9.092;2023-08-24T09:31:20;99017.16;;;27.81;49.28
15604;BME280;7902;49.042;9.092;2023-08-24T09:33:47;99014.97;;;27.89;48.99
15604;BME280;7902;49.042;9.092;2023-08-24T09:36:14;99013.41;;;28.00;49.16
15604;BME280;7902;49.042;9.092;2023-08-24T09:38:46;99008.38;;;28.04;49.10
15604;BME280;7902;49.042;9.092;2023-08-24T09:41:13;99013.28;;;28.13;48.48
15604;BME280;7902;49.042;9.092;2023-08-24T09:43:39;98994.53;;;28.18;48.81
15604;BME280;7902;49.042;9.092;2023-08-24T09:46:05;98989.06;;;28.25;48.62
15604;BME280;7902;49.042;9.092;2023-08-24T09:48:33;98986.88;;;28.33;48.56
15604;BME280;7902;49.042;9.092;2023-08-24T09:51:03;98971.38;;;28.41;48.68
15604;BME280;7902;49.042;9.092;2023-08-24T09:53:33;98965.63;;;28.37;48.50
15604;BME280;7902;49.042;9.092;2023-08-24T09:56:03;98970.38;;;28.53;48.49
15604;BME280;7902;49.042;9.092;2023-08-24T09:58:31;98946.09;;;28.65;48.35
15604;BME280;7902;49.042;9.092;2023-08-24T10:00:57;98949.41;;;28.67;48.76
15604;BME280;7902;49.042;9.092;2023-08-24T10:03:27;98943.91;;;28.73;48.29
15604;BME280;7902;49.042;9.092;2023-08-24T10:05:55;98945.78;;;28.73;48.58
15604;BME280;7902;49.042;9.092;2023-08-24T10:08:28;98937.00;;;28.89;48.09
15604;BME280;7902;49.042;9.092;2023-08-24T10:10:56;98938.28;;;28.87;48.27
15604;BME280;7902;49.042;9.092;2023-08-24T10:13:48;98936.53;;;28.92;48.63
15604;BME280;7902;49.042;9.092;2023-08-24T10:16:16;98920.56;;;29.02;48.33
15604;BME280;7902;49.042;9.092;2023-08-24T10:18:44;98919.16;;;29.11;47.95
15604;BME280;7902;49.042;9.092;2023-08-24T10:21:10;98907.38;;;29.29;47.91
15604;BME280;7902;49.042;9.092;2023-08-24T10:23:37;98912.59;;;29.31;48.05
15604;BME280;7902;49.042;9.092;2023-08-24T10:26:06;98916.47;;;29.46;47.92
15604;BME280;7902;49.042;9.092;2023-08-24T10:28:32;98910.81;;;29.48;47.76
15604;BME280;7902;49.042;9.092;2023-08-24T10:30:59;98910.34;;;29.39;47.85
15604;BME280;7902;49.042;9.092;2023-08-24T10:33:26;98912.91;;;29.57;47.52
15604;BME280;7902;49.042;9.092;2023-08-24T10:35:53;98901.75;;;29.65;47.51
15604;BME280;7902;49.042;9.092;2023-08-24T10:38:23;98901.81;;;29.82;47.40
15604;BME280;7902;49.042;9.092;2023-08-24T10:40:51;98902.72;;;29.88;47.41
15604;BME280;7902;49.042;9.092;2023-08-24T10:43:17;98888.00;;;29.95;47.24
15604;BME280;7902;49.042;9.092;2023-08-24T10:46:00;98888.91;;;30.13;47.17
15604;BME280;7902;49.042;9.092;2023-08-24T10:48:28;98882.50;;;30.19;47.27
15604;BME280;7902;49.042;9.092;2023-08-24T10:53:48;98875.06;;;30.42;47.18
15604;BME280;7902;49.042;9.092;2023-08-24T10:56:17;98857.03;;;30.48;47.46
15604;BME280;7902;49.042;9.092;2023-08-24T10:58:45;98850.94;;;30.41;47.64
15604;BME280;7902;49.042;9.092;2023-08-24T11:01:18;98846.22;;;30.48;46.98
15604;BME280;7902;49.042;9.092;2023-08-24T11:03:54;98843.09;;;30.56;47.10
15604;BME280;7902;49.042;9.092;2023-08-24T11:06:21;98838.38;;;30.85;46.52
15604;BME280;7902;49.042;9.092;2023-08-24T11:08:49;98839.06;;;30.75;47.04
15604;BME280;7902;49.042;9.092;2023-08-24T11:11:22;98835.69;;;30.85;46.86
15604;BME280;7902;49.042;9.092;2023-08-24T11:14:14;98828.53;;;30.95;47.42
15604;BME280;7902;49.042;9.092;2023-08-24T11:16:46;98827.78;;;31.17;47.07
15604;BME280;7902;49.042;9.092;2023-08-24T11:19:13;98822.66;;;31.20;47.11
15604;BME280;7902;49.042;9.092;2023-08-24T11:21:41;98820.41;;;31.34;47.47
15604;BME280;7902;49.042;9.092;2023-08-24T11:24:09;98816.41;;;31.42;47.32
15604;BME280;7902;49.042;9.092;2023-08-24T11:26:39;98808.84;;;31.44;46.39
15604;BME280;7902;49.042;9.092;2023-08-24T11:29:05;98805.25;;;31.38;46.50
15604;BME280;7902;49.042;9.092;2023-08-24T11:31:33;98806.09;;;31.60;45.75
15604;BME280;7902;49.042;9.092;2023-08-24T11:33:59;98803.00;;;31.73;45.81
15604;BME280;7902;49.042;9.092;2023-08-24T11:36:25;98803.00;;;31.73;46.03
15604;BME280;7902;49.042;9.092;2023-08-24T11:38:53;98795.94;;;31.72;46.43
15604;BME280;7902;49.042;9.092;2023-08-24T11:41:21;98800.13;;;31.85;45.95
15604;BME280;7902;49.042;9.092;2023-08-24T11:43:48;98787.41;;;31.91;46.37
15604;BME280;7902;49.042;9.092;2023-08-24T11:46:17;98792.63;;;31.97;45.95
15604;BME280;7902;49.042;9.092;2023-08-24T11:48:44;98788.94;;;32.08;45.72
15604;BME280;7902;49.042;9.092;2023-08-24T11:51:12;98796.94;;;32.15;45.51
15604;BME280;7902;49.042;9.092;2023-08-24T11:53:40;98793.69;;;32.18;44.63
15604;BME280;7902;49.042;9.092;2023-08-24T11:56:08;98791.16;;;32.11;43.74
15604;BME280;7902;49.042;9.092;2023-08-24T11:58:37;98786.34;;;32.18;43.77
15604;BME280;7902;49.042;9.092;2023-08-24T12:01:03;98785.03;;;32.26;43.57
15604;BME280;7902;49.042;9.092;2023-08-24T12:03:33;98778.59;;;32.32;43.55
15604;BME280;7902;49.042;9.092;2023-08-24T12:06:02;98787.75;;;32.26;43.92
15604;BME280;7902;49.042;9.092;2023-08-24T12:08:46;98780.03;;;32.45;44.30
15604;BME280;7902;49.042;9.092;2023-08-24T12:11:17;98766.81;;;32.53;44.06
15604;BME280;7902;49.042;9.092;2023-08-24T12:13:54;98765.09;;;32.42;43.98
15604;BME280;7902;49.042;9.092;2023-08-24T12:16:22;98757.00;;;32.52;43.31
15604;BME280;7902;49.042;9.092;2023-08-24T12:18:53;98760.72;;;32.78;43.93
15604;BME280;7902;49.042;9.092;2023-08-24T12:21:31;98757.78;;;32.85;43.80
15604;BME280;7902;49.042;9.092;2023-08-24T12:24:05;98752.06;;;32.81;43.46
15604;BME280;7902;49.042;9.092;2023-08-24T12:26:33;98744.28;;;33.05;43.56
15604;BME280;7902;49.042;9.092;2023-08-24T12:29:02;98742.34;;;32.95;44.43
15604;BME280;7902;49.042;9.092;2023-08-24T12:31:29;98736.34;;;32.98;43.94
15604;BME280;7902;49.042;9.092;2023-08-24T12:34:03;98720.41;;;33.17;44.01
15604;BME280;7902;49.042;9.092;2023-08-24T12:36:33;98703.69;;;32.93;44.17
15604;BME280;7902;49.042;9.092;2023-08-24T12:38:59;98702.41;;;33.11;44.25
15604;BME280;7902;49.042;9.092;2023-08-24T12:41:25;98703.75;;;33.03;43.44
15604;BME280;7902;49.042;9.092;2023-08-24T12:43:51;98686.41;;;33.20;43.77
15604;BME280;7902;49.042;9.092;2023-08-24T12:46:18;98688.34;;;33.24;43.61
15604;BME280;7902;49.042;9.092;2023-08-24T12:48:44;98691.63;;;33.36;43.24
15604;BME280;7902;49.042;9.092;2023-08-24T12:51:10;98687.28;;;33.35;43.37
15604;BME280;7902;49.042;9.092;2023-08-24T12:53:36;98691.06;;;33.29;43.82
15604;BME280;7902;49.042;9.092;2023-08-24T12:56:02;98684.28;;;33.32;43.87
15604;BME280;7902;49.042;9.092;2023-08-24T12:58:30;98682.34;;;33.27;43.81
15604;BME280;7902;49.042;9.092;2023-08-24T13:00:56;98669.28;;;33.29;43.76
15604;BME280;7902;49.042;9.092;2023-08-24T13:03:25;98664.16;;;33.58;43.94
15604;BME280;7902;49.042;9.092;2023-08-24T13:05:51;98650.28;;;33.55;42.96
15604;BME280;7902;49.042;9.092;2023-08-24T13:08:17;98643.19;;;33.53;43.65
15604;BME280;7902;49.042;9.092;2023-08-24T13:10:43;98632.31;;;33.53;42.97
15604;BME280;7902;49.042;9.092;2023-08-24T13:13:26;98633.41;;;33.42;43.59
15604;BME280;7902;49.042;9.092;2023-08-24T13:16:20;98629.56;;;33.48;43.69